sensor_id;sensor_type;location;lat;lon;timestamp;pressure;altitude;pressure_sealevel;temperature;humidity
29461;BME280;16428;47.836;35.106;2022-07-29T00:01:02;101364.47;;;25.05;91.81
29461;BME280;16428;47.836;35.106;2022-07-29T00:03:30;101368.81;;;25.01;92.34
29461;BME280;16428;47.836;35.106;2022-07-29T00:05:58;101366.56;;;24.98;92.79
29461;BME280;16428;47.836;35.106;2022-07-29T00:08:26;101369.91;;;25.00;91.61
29461;BME280;16428;47.836;35.106;2022-07-29T00:10:55;101364.91;;;24.97;91.20
29461;BME280;16428;47.836;35.106;2022-07-29T00:13:25;101366.06;;;25.01;90.04
29461;BME280;16428;47.836;35.106;2022-07-29T00:15:59;101360.38;;;24.91;90.99
29461;BME280;16428;47.836;35.106;2022-07-29T00:18:32;101362.25;;;25.07;89.41
29461;BME280;16428;47.836;35.106;2022-07-29T00:21:00;101360.88;;;25.05;89.38
29461;BME280;16428;47.836;35.106;2022-07-29T00:38:01;101358.44;;;24.86;88.19
29461;BME280;16428;47.836;35.106;2022-07-29T00:40:29;101349.50;;;24.74;87.78
29461;BME280;16428;47.836;35.106;2022-07-29T00:42:56;101351.94;;;24.76;86.77
29461;BME280;16428;47.836;35.106;2022-07-29T00:45:25;101366.16;;;24.68;87.03
29461;BME280;16428;47.836;35.106;2022-07-29T00:47:53;101362.19;;;24.59;87.18
29461;BME280;16428;47.836;35.106;2022-07-29T00:50:22;101364.00;;;24.70;86.48
29461;BME280;16428;47.836;35.106;2022-07-29T00:52:52;101372.84;;;24.77;86.30
29461;BME280;16428;47.836;35.106;2022-07-29T00:55:20;101366.53;;;24.54;86.20
29461;BME280;16428;47.836;35.106;2022-07-29T00:57:48;101370.34;;;24.53;86.20
29461;BME280;16428;47.836;35.106;2022-07-29T01:00:19;101374.06;;;24.42;84.90
29461;BME280;16428;47.836;35.106;2022-07-29T01:02:48;101370.56;;;24.30;84.73
29461;BME280;16428;47.836;35.106;2022-07-29T01:05:26;101362.63;;;24.50;84.77
29461;BME280;16428;47.836;35.106;2022-07-29T01:08:15;101357.41;;;24.32;83.75
29461;BME280;16428;47.836;35.106;2022-07-29T01:10:44;101354.25;;;24.40;84.43
29461;BME280;16428;47.836;35.106;2022-07-29T01:13:14;101348.75;;;24.40;83.93
29461;BME280;16428;47.836;35.106;2022-07-29T01:15:47;101341.59;;;24.39;84.22
29461;BME280;16428;47.836;35.106;2022-07-29T01:18:22;101345.44;;;24.38;83.65
29461;BME280;16428;47.836;35.106;2022-07-29T01:21:15;101347.94;;;24.23;83.70
29461;BME280;16428;47.836;35.106;2022-07-29T01:26:59;101359.16;;;24.22;82.00
29461;BME280;16428;47.836;35.106;2022-07-29T01:29:36;101358.25;;;24.33;82.12
29461;BME280;16428;47.836;35.106;2022-07-29T01:32:10;101358.56;;;24.36;82.84
29461;BME280;16428;47.836;35.106;2022-07-29T01:40:34;101370.25;;;24.27;81.87
29461;BME280;16428;47.836;35.106;2022-07-29T01:43:09;101370.47;;;24.42;82.10
29461;BME280;16428;47.836;35.106;2022-07-29T01:45:44;101368.31;;;24.44;81.50
29461;BME280;16428;47.836;35.106;2022-07-29T01:48:24;101370.38;;;24.37;81.31
29461;BME280;16428;47.836;35.106;2022-07-29T01:54:10;101380.41;;;24.26;80.81
29461;BME280;16428;47.836;35.106;2022-07-29T01:56:43;101384.88;;;24.32;81.31
29461;BME280;16428;47.836;35.106;2022-07-29T01:59:12;101382.06;;;24.27;81.45
29461;BME280;16428;47.836;35.106;2022-07-29T02:01:42;101388.53;;;24.21;81.25
29461;BME280;16428;47.836;35.106;2022-07-29T02:04:12;101383.66;;;24.23;82.10
29461;BME280;16428;47.836;35.106;2022-07-29T02:07:00;101389.50;;;24.15;81.96
29461;BME280;16428;47.836;35.106;2022-07-29T02:09:33;101384.69;;;24.22;82.05
29461;BME280;16428;47.836;35.106;2022-07-29T02:12:06;101384.88;;;24.32;81.72
29461;BME280;16428;47.836;35.106;2022-07-29T02:14:44;101389.00;;;24.18;81.92
29461;BME280;16428;47.836;35.106;2022-07-29T02:17:25;101393.06;;;24.27;81.94
29461;BME280;16428;47.836;35.106;2022-07-29T02:19:58;101403.91;;;24.22;82.32
29461;BME280;16428;47.836;35.106;2022-07-29T02:22:33;101393.84;;;24.11;82.54
29461;BME280;16428;47.836;35.106;2022-07-29T02:25:01;101395.22;;;24.25;82.13
29461;BME280;16428;47.836;35.106;2022-07-29T02:27:30;101404.50;;;24.07;81.76
29461;BME280;16428;47.836;35.106;2022-07-29T02:30:01;101412.56;;;24.14;82.15
29461;BME280;16428;47.836;35.106;2022-07-29T02:32:31;101409.56;;;24.15;81.65
29461;BME280;16428;47.836;35.106;2022-07-29T02:35:03;101408.22;;;24.18;81.58
29461;BME280;16428;47.836;35.106;2022-07-29T02:37:32;101413.22;;;24.21;81.12
29461;BME280;16428;47.836;35.106;2022-07-29T02:40:00;101412.31;;;24.15;80.36
29461;BME280;16428;47.836;35.106;2022-07-29T02:42:29;101420.78;;;24.14;81.84
29461;BME280;16428;47.836;35.106;2022-07-29T02:44:58;101421.31;;;24.11;82.06
29461;BME280;16428;47.836;35.106;2022-07-29T02:47:42;101419.16;;;24.13;79.98
29461;BME280;16428;47.836;35.106;2022-07-29T02:50:37;101418.84;;;24.26;81.11
29461;BME280;16428;47.836;35.106;2022-07-29T02:53:14;101423.31;;;24.32;80.21
29461;BME280;16428;47.836;35.106;2022-07-29T02:55:48;101423.50;;;24.26;80.65
29461;BME280;16428;47.836;35.106;2022-07-29T02:58:22;101425.41;;;24.25;80.11
29461;BME280;16428;47.836;35.106;2022-07-29T03:00:57;101413.66;;;24.30;80.11
29461;BME280;16428;47.836;35.106;2022-07-29T03:03:31;101412.16;;;24.22;80.61
29461;BME280;16428;47.836;35.106;2022-07-29T03:06:01;101409.50;;;24.44;79.76
29461;BME280;16428;47.836;35.106;2022-07-29T03:08:31;101413.16;;;24.33;80.58
29461;BME280;16428;47.836;35.106;2022-07-29T03:11:01;101403.81;;;24.17;80.24
29461;BME280;16428;47.836;35.106;2022-07-29T03:13:31;101405.59;;;24.23;80.88
29461;BME280;16428;47.836;35.106;2022-07-29T03:15:59;101404.31;;;24.14;80.59
29461;BME280;16428;47.836;35.106;2022-07-29T03:18:32;101405.47;;;24.18;80.05
29461;BME280;16428;47.836;35.106;2022-07-29T03:21:01;101408.94;;;24.25;78.75
29461;BME280;16428;47.836;35.106;2022-07-29T03:23:31;101418.59;;;24.28;78.31
29461;BME280;16428;47.836;35.106;2022-07-29T03:26:03;101408.34;;;24.40;78.39
29461;BME280;16428;47.836;35.106;2022-07-29T03:28:30;101416.16;;;24.31;77.93
29461;BME280;16428;47.836;35.106;2022-07-29T03:30:58;101415.66;;;24.34;78.05
29461;BME280;16428;47.836;35.106;2022-07-29T03:33:26;101416.59;;;24.23;76.97
29461;BME280;16428;47.836;35.106;2022-07-29T03:35:56;101414.56;;;24.35;78.25
29461;BME280;16428;47.836;35.106;2022-07-29T03:38:29;101418.31;;;24.29;77.06
29461;BME280;16428;47.836;35.106;2022-07-29T03:41:03;101418.97;;;24.19;77.64
29461;BME280;16428;47.836;35.106;2022-07-29T03:43:36;101415.97;;;24.21;77.85
29461;BME280;16428;47.836;35.106;2022-07-29T03:46:16;101422.22;;;24.33;77.83
29461;BME280;16428;47.836;35.106;2022-07-29T03:48:48;101410.63;;;24.14;77.05
29461;BME280;16428;47.836;35.106;2022-07-29T03:51:20;101414.75;;;24.12;77.59
29461;BME280;16428;47.836;35.106;2022-07-29T03:54:04;101415.00;;;24.10;77.57
29461;BME280;16428;47.836;35.106;2022-07-29T03:56:46;101407.00;;;24.09;78.30
29461;BME280;16428;47.836;35.106;2022-07-29T03:59:16;101415.81;;;24.11;78.05
29461;BME280;16428;47.836;35.106;2022-07-29T04:01:45;101422.28;;;24.05;77.05
29461;BME280;16428;47.836;35.106;2022-07-29T04:04:13;101433.66;;;24.25;77.34
29461;BME280;16428;47.836;35.106;2022-07-29T04:06:43;101430.44;;;24.16;77.32
29461;BME280;16428;47.836;35.106;2022-07-29T04:09:14;101437.59;;;24.01;76.57
29461;BME280;16428;47.836;35.106;2022-07-29T04:11:42;101428.63;;;24.05;77.38
29461;BME280;16428;47.836;35.106;2022-07-29T04:14:33;101435.84;;;23.95;77.80
29461;BME280;16428;47.836;35.106;2022-07-29T04:17:03;101442.75;;;23.97;78.34
29461;BME280;16428;47.836;35.106;2022-07-29T04:19:31;101442.91;;;23.91;77.96
29461;BME280;16428;47.836;35.106;2022-07-29T04:22:01;101446.25;;;24.09;77.64
29461;BME280;16428;47.836;35.106;2022-07-29T04:24:28;101453.25;;;24.34;77.34
29461;BME280;16428;47.836;35.106;2022-07-29T04:26:57;101450.13;;;24.25;76.72
29461;BME280;16428;47.836;35.106;2022-07-29T04:29:25;101448.91;;;24.21;77.59
29461;BME280;16428;47.836;35.106;2022-07-29T04:31:52;101431.75;;;24.14;76.81
29461;BME280;16428;47.836;35.106;2022-07-29T04:34:21;101435.94;;;24.16;76.95
29461;BME280;16428;47.836;35.106;2022-07-29T04:36:55;101429.44;;;24.06;78.08
29461;BME280;16428;47.836;35.106;2022-07-29T04:39:23;101440.31;;;24.01;77.79
29461;BME280;16428;47.836;35.106;2022-07-29T04:41:50;101435.25;;;23.93;77.69
29461;BME280;16428;47.836;35.106;2022-07-29T04:44:22;101439.09;;;24.08;78.44
29461;BME280;16428;47.836;35.106;2022-07-29T04:46:55;101439.13;;;24.25;77.83
29461;BME280;16428;47.836;35.106;2022-07-29T04:49:24;101451.94;;;24.36;76.48
29461;BME280;16428;47.836;35.106;2022-07-29T04:51:51;101439.75;;;24.15;77.17
29461;BME280;16428;47.836;35.106;2022-07-29T04:54:19;101448.06;;;24.04;77.07
29461;BME280;16428;47.836;35.106;2022-07-29T04:56:47;101435.63;;;24.13;77.56
29461;BME280;16428;47.836;35.106;2022-07-29T04:59:15;101443.69;;;24.36;76.39
29461;BME280;16428;47.836;35.106;2022-07-29T05:01:42;101433.66;;;24.25;76.14
29461;BME280;16428;47.836;35.106;2022-07-29T05:04:10;101427.31;;;24.25;77.39
29461;BME280;16428;47.836;35.106;2022-07-29T05:06:37;101434.59;;;24.19;76.28
29461;BME280;16428;47.836;35.106;2022-07-29T05:09:06;101437.53;;;24.29;76.39
29461;BME280;16428;47.836;35.106;2022-07-29T05:11:34;101440.13;;;24.36;76.69
29461;BME280;16428;47.836;35.106;2022-07-29T05:14:03;101435.13;;;24.33;76.53
29461;BME280;16428;47.836;35.106;2022-07-29T05:16:31;101436.97;;;24.44;76.66
29461;BME280;16428;47.836;35.106;2022-07-29T05:18:59;101436.09;;;24.60;76.13
29461;BME280;16428;47.836;35.106;2022-07-29T05:21:27;101440.03;;;24.47;75.51
29461;BME280;16428;47.836;35.106;2022-07-29T05:23:54;101438.56;;;24.62;75.89
29461;BME280;16428;47.836;35.106;2022-07-29T05:26:22;101442.81;;;24.69;74.83
29461;BME280;16428;47.836;35.106;2022-07-29T05:28:50;101444.06;;;24.62;74.05
29461;BME280;16428;47.836;35.106;2022-07-29T05:31:18;101440.59;;;24.49;75.23
29461;BME280;16428;47.836;35.106;2022-07-29T05:33:46;101448.75;;;24.44;75.41
29461;BME280;16428;47.836;35.106;2022-07-29T05:36:17;101450.25;;;24.69;75.21
29461;BME280;16428;47.836;35.106;2022-07-29T05:38:45;101450.25;;;24.69;74.36
29461;BME280;16428;47.836;35.106;2022-07-29T05:41:12;101450.03;;;24.75;74.04
29461;BME280;16428;47.836;35.106;2022-07-29T05:43:41;101448.88;;;24.88;73.57
29461;BME280;16428;47.836;35.106;2022-07-29T05:46:08;101462.28;;;24.84;74.16
29461;BME280;16428;47.836;35.106;2022-07-29T05:48:36;101450.00;;;24.92;73.75
29461;BME280;16428;47.836;35.106;2022-07-29T05:51:04;101449.34;;;25.02;73.65
29461;BME280;16428;47.836;35.106;2022-07-29T05:53:32;101446.41;;;25.08;73.79
29461;BME280;16428;47.836;35.106;2022-07-29T05:56:03;101446.34;;;25.03;73.51
29461;BME280;16428;47.836;35.106;2022-07-29T05:58:32;101445.31;;;25.09;72.96
29461;BME280;16428;47.836;35.106;2022-07-29T06:01:02;101448.47;;;25.18;73.03
29461;BME280;16428;47.836;35.106;2022-07-29T06:03:30;101447.56;;;25.34;71.92
29461;BME280;16428;47.836;35.106;2022-07-29T06:05:57;101450.78;;;25.53;71.19
29461;BME280;16428;47.836;35.106;2022-07-29T06:08:26;101455.38;;;25.69;70.93
29461;BME280;16428;47.836;35.106;2022-07-29T06:10:54;101456.63;;;25.83;70.83
29461;BME280;16428;47.836;35.106;2022-07-29T06:13:21;101453.50;;;26.02;69.90
29461;BME280;16428;47.836;35.106;2022-07-29T06:15:52;101454.19;;;26.19;69.22
29461;BME280;16428;47.836;35.106;2022-07-29T06:18:20;101454.56;;;26.27;68.30
29461;BME280;16428;47.836;35.106;2022-07-29T06:20:51;101452.13;;;26.31;68.14
29461;BME280;16428;47.836;35.106;2022-07-29T06:23:21;101458.13;;;26.28;67.86
29461;BME280;16428;47.836;35.106;2022-07-29T06:25:54;101445.31;;;26.44;68.04
29461;BME280;16428;47.836;35.106;2022-07-29T06:28:21;101447.53;;;26.42;67.25
29461;BME280;16428;47.836;35.106;2022-07-29T06:30:49;101449.72;;;26.40;67.58
29461;BME280;16428;47.836;35.106;2022-07-29T06:33:18;101451.44;;;26.51;66.78
29461;BME280;16428;47.836;35.106;2022-07-29T06:35:46;101451.44;;;26.51;66.61
29461;BME280;16428;47.836;35.106;2022-07-29T06:38:20;101452.34;;;26.61;66.61
29461;BME280;16428;47.836;35.106;2022-07-29T06:41:01;101443.06;;;26.78;65.57
29461;BME280;16428;47.836;35.106;2022-07-29T06:43:41;101437.13;;;26.96;65.28
29461;BME280;16428;47.836;35.106;2022-07-29T06:46:20;101433.88;;;27.09;65.38
29461;BME280;16428;47.836;35.106;2022-07-29T06:48:48;101435.03;;;27.18;65.59
29461;BME280;16428;47.836;35.106;2022-07-29T06:51:21;101443.59;;;27.27;65.42
29461;BME280;16428;47.836;35.106;2022-07-29T06:53:54;101440.03;;;27.31;65.34
29461;BME280;16428;47.836;35.106;2022-07-29T06:56:33;101432.59;;;27.37;64.25
29461;BME280;16428;47.836;35.106;2022-07-29T06:59:07;101419.94;;;27.46;63.84
29461;BME280;16428;47.836;35.106;2022-07-29T07:01:36;101428.28;;;27.61;62.49
29461;BME280;16428;47.836;35.106;2022-07-29T07:04:05;101427.44;;;27.71;62.94
29461;BME280;16428;47.836;35.106;2022-07-29T07:06:33;101415.31;;;27.77;62.22
29461;BME280;16428;47.836;35.106;2022-07-29T07:09:00;101425.25;;;27.83;62.44
29461;BME280;16428;47.836;35.106;2022-07-29T07:11:28;101429.13;;;27.92;62.71
29461;BME280;16428;47.836;35.106;2022-07-29T07:13:59;101417.53;;;28.06;61.21
29461;BME280;16428;47.836;35.106;2022-07-29T07:16:32;101433.59;;;28.19;61.00
29461;BME280;16428;47.836;35.106;2022-07-29T07:19:03;101432.19;;;28.31;60.41
29461;BME280;16428;47.836;35.106;2022-07-29T07:21:32;101435.22;;;28.30;60.25
29461;BME280;16428;47.836;35.106;2022-07-29T07:24:00;101421.13;;;28.37;59.87
29461;BME280;16428;47.836;35.106;2022-07-29T07:26:28;101426.38;;;28.38;60.92
29461;BME280;16428;47.836;35.106;2022-07-29T07:28:56;101428.03;;;28.49;60.49
29461;BME280;16428;47.836;35.106;2022-07-29T07:31:26;101423.88;;;28.52;59.21
29461;BME280;16428;47.836;35.106;2022-07-29T07:33:54;101418.88;;;28.64;59.64
29461;BME280;16428;47.836;35.106;2022-07-29T07:36:22;101422.44;;;28.69;60.15
29461;BME280;16428;47.836;35.106;2022-07-29T07:38:50;101421.31;;;28.76;59.39
29461;BME280;16428;47.836;35.106;2022-07-29T07:41:17;101426.00;;;28.75;58.83
29461;BME280;16428;47.836;35.106;2022-07-29T07:43:45;101427.41;;;28.83;58.63
29461;BME280;16428;47.836;35.106;2022-07-29T07:46:13;101431.28;;;28.82;57.47
29461;BME280;16428;47.836;35.106;2022-07-29T07:48:52;101422.41;;;28.90;57.22
29461;BME280;16428;47.836;35.106;2022-07-29T07:51:20;101432.91;;;28.93;57.28
29461;BME280;16428;47.836;35.106;2022-07-29T07:53:47;101432.34;;;28.96;57.63
29461;BME280;16428;47.836;35.106;2022-07-29T07:56:17;101432.06;;;29.02;57.30
29461;BME280;16428;47.836;35.106;2022-07-29T07:58:44;101426.19;;;29.14;57.52
29461;BME280;16428;47.836;35.106;2022-07-29T08:01:12;101418.94;;;29.18;57.86
29461;BME280;16428;47.836;35.106;2022-07-29T08:03:42;101422.81;;;29.22;56.47
29461;BME280;16428;47.836;35.106;2022-07-29T08:06:10;101424.16;;;29.30;56.41
29461;BME280;16428;47.836;35.106;2022-07-29T08:08:38;101429.66;;;29.35;55.88
29461;BME280;16428;47.836;35.106;2022-07-29T08:11:07;101430.72;;;29.49;55.37
29461;BME280;16428;47.836;35.106;2022-07-29T08:13:37;101431.50;;;29.60;54.67
29461;BME280;16428;47.836;35.106;2022-07-29T08:16:06;101431.53;;;29.50;54.67
29461;BME280;16428;47.836;35.106;2022-07-29T08:18:42;101431.22;;;29.61;54.48
29461;BME280;16428;47.836;35.106;2022-07-29T08:21:10;101434.72;;;29.72;54.53
29461;BME280;16428;47.836;35.106;2022-07-29T08:23:44;101438.47;;;29.91;53.85
29461;BME280;16428;47.836;35.106;2022-07-29T08:26:28;101434.00;;;29.95;53.78
29461;BME280;16428;47.836;35.106;2022-07-29T08:28:56;101440.06;;;30.02;53.68
29461;BME280;16428;47.836;35.106;2022-07-29T08:31:26;101438.25;;;30.22;52.97
29461;BME280;16428;47.836;35.106;2022-07-29T08:33:54;101441.47;;;30.34;52.63
29461;BME280;16428;47.836;35.106;2022-07-29T08:36:24;101432.66;;;30.56;51.90
29461;BME280;16428;47.836;35.106;2022-07-29T08:38:55;101436.88;;;30.48;51.84
29461;BME280;16428;47.836;35.106;2022-07-29T08:41:23;101430.09;;;30.64;51.71
29461;BME280;16428;47.836;35.106;2022-07-29T08:43:51;101441.06;;;30.74;51.14
29461;BME280;16428;47.836;35.106;2022-07-29T08:46:20;101431.44;;;30.91;50.86
29461;BME280;16428;47.836;35.106;2022-07-29T08:48:51;101426.00;;;31.04;50.31
29461;BME280;16428;47.836;35.106;2022-07-29T08:51:20;101427.63;;;31.10;49.97
29461;BME280;16428;47.836;35.106;2022-07-29T08:53:50;101432.34;;;31.10;50.52
29461;BME280;16428;47.836;35.106;2022-07-29T08:56:19;101424.56;;;31.07;50.23
29461;BME280;16428;47.836;35.106;2022-07-29T08:58:48;101426.00;;;31.04;49.59
29461;BME280;16428;47.836;35.106;2022-07-29T09:01:22;101429.50;;;31.15;49.57
29461;BME280;16428;47.836;35.106;2022-07-29T09:04:11;101432.66;;;31.03;49.29
29461;BME280;16428;47.836;35.106;2022-07-29T09:06:49;101422.22;;;31.19;49.19
29461;BME280;16428;47.836;35.106;2022-07-29T09:09:21;101429.38;;;31.25;48.80
29461;BME280;16428;47.836;35.106;2022-07-29T09:11:49;101425.25;;;31.41;48.14
29461;BME280;16428;47.836;35.106;2022-07-29T09:14:21;101420.97;;;31.49;47.55
29461;BME280;16428;47.836;35.106;2022-07-29T09:16:55;101421.53;;;31.70;46.64
29461;BME280;16428;47.836;35.106;2022-07-29T09:22:00;101421.59;;;32.16;45.43
29461;BME280;16428;47.836;35.106;2022-07-29T09:24:41;101420.16;;;32.19;45.18
29461;BME280;16428;47.836;35.106;2022-07-29T09:27:18;101429.31;;;32.38;44.55
29461;BME280;16428;47.836;35.106;2022-07-29T09:29:59;101415.50;;;32.46;43.66
29461;BME280;16428;47.836;35.106;2022-07-29T09:32:54;101415.28;;;32.29;43.71
29461;BME280;16428;47.836;35.106;2022-07-29T09:35:25;101415.00;;;32.58;43.44
29461;BME280;16428;47.836;35.106;2022-07-29T09:37:54;101415.31;;;32.70;43.36
29461;BME280;16428;47.836;35.106;2022-07-29T09:40:27;101413.06;;;32.86;42.88
29461;BME280;16428;47.836;35.106;2022-07-29T09:42:55;101407.19;;;32.88;42.36
29461;BME280;16428;47.836;35.106;2022-07-29T09:45:29;101412.25;;;33.13;42.17
29461;BME280;16428;47.836;35.106;2022-07-29T09:48:22;101409.53;;;33.35;41.99
29461;BME280;16428;47.836;35.106;2022-07-29T09:50:51;101404.78;;;33.22;41.13
29461;BME280;16428;47.836;35.106;2022-07-29T09:53:36;101411.97;;;33.50;40.89
29461;BME280;16428;47.836;35.106;2022-07-29T09:56:05;101414.97;;;33.54;39.66
29461;BME280;16428;47.836;35.106;2022-07-29T09:58:34;101416.13;;;33.75;40.18
29461;BME280;16428;47.836;35.106;2022-07-29T10:01:02;101403.66;;;33.95;39.36
29461;BME280;16428;47.836;35.106;2022-07-29T10:03:31;101412.66;;;33.92;39.73
29461;BME280;16428;47.836;35.106;2022-07-29T10:06:10;101400.63;;;34.05;38.87
29461;BME280;16428;47.836;35.106;2022-07-29T10:08:48;101393.13;;;33.92;38.06
29461;BME280;16428;47.836;35.106;2022-07-29T10:11:18;101406.44;;;34.17;38.76
29461;BME280;16428;47.836;35.106;2022-07-29T10:13:48;101409.06;;;34.22;38.80
29461;BME280;16428;47.836;35.106;2022-07-29T10:16:16;101404.75;;;34.39;37.95
29461;BME280;16428;47.836;35.106;2022-07-29T10:18:44;101400.69;;;34.45;37.00
29461;BME280;16428;47.836;35.106;2022-07-29T10:21:16;101409.16;;;34.62;36.57
29461;BME280;16428;47.836;35.106;2022-07-29T10:24:04;101407.50;;;34.61;36.41
29461;BME280;16428;47.836;35.106;2022-07-29T10:26:32;101405.94;;;34.77;36.49
29461;BME280;16428;47.836;35.106;2022-07-29T10:29:00;101405.94;;;34.77;35.77
29461;BME280;16428;47.836;35.106;2022-07-29T10:31:36;101399.22;;;34.78;36.32
29461;BME280;16428;47.836;35.106;2022-07-29T10:34:20;101400.09;;;34.56;35.80
29461;BME280;16428;47.836;35.106;2022-07-29T10:37:00;101392.69;;;34.83;36.43
29461;BME280;16428;47.836;35.106;2022-07-29T10:39:45;101398.41;;;34.86;35.64
29461;BME280;16428;47.836;35.106;2022-07-29T10:42:25;101405.03;;;35.08;35.77
29461;BME280;16428;47.836;35.106;2022-07-29T10:45:03;101399.78;;;35.15;35.19
29461;BME280;16428;47.836;35.106;2022-07-29T10:47:34;101395.44;;;35.40;34.88
29461;BME280;16428;47.836;35.106;2022-07-29T10:50:04;101389.97;;;35.60;34.61
29461;BME280;16428;47.836;35.106;2022-07-29T10:55:39;101390.97;;;35.47;35.36
29461;BME280;16428;47.836;35.106;2022-07-29T10:58:20;101389.00;;;35.48;34.43
29461;BME280;16428;47.836;35.106;2022-07-29T11:00:54;101399.97;;;35.10;35.34
29461;BME280;16428;47.836;35.106;2022-07-29T11:03:44;101389.97;;;35.60;35.05
29461;BME280;16428;47.836;35.106;2022-07-29T11:06:17;101384.41;;;35.60;34.21
29461;BME280;16428;47.836;35.106;2022-07-29T11:09:19;101390.97;;;35.30;34.37
29461;BME280;16428;47.836;35.106;2022-07-29T11:12:47;101385.91;;;35.41;35.41
29461;BME280;16428;47.836;35.106;2022-07-29T11:15:21;101379.81;;;35.47;34.53
29461;BME280;16428;47.836;35.106;2022-07-29T11:20:40;101377.50;;;35.49;33.95
29461;BME280;16428;47.836;35.106;2022-07-29T11:23:40;101375.81;;;35.22;34.74
29461;BME280;16428;47.836;35.106;2022-07-29T11:28:54;101372.59;;;35.29;34.09
29461;BME280;16428;47.836;35.106;2022-07-29T11:31:36;101372.53;;;35.20;34.01
29461;BME280;16428;47.836;35.106;2022-07-29T11:34:28;101376.94;;;35.04;33.86
29461;BME280;16428;47.836;35.106;2022-07-29T11:39:44;101360.88;;;35.18;33.50
29461;BME280;16428;47.836;35.106;2022-07-29T11:45:04;101360.91;;;35.36;33.66
29461;BME280;16428;47.836;35.106;2022-07-29T11:47:59;101363.38;;;35.54;33.46
29461;BME280;16428;47.836;35.106;2022-07-29T11:50:48;101353.50;;;35.83;32.43
29461;BME280;16428;47.836;35.106;2022-07-29T11:53:17;101364.84;;;35.86;32.22
29461;BME280;16428;47.836;35.106;2022-07-29T11:55:48;101362.72;;;35.75;32.98
29461;BME280;16428;47.836;35.106;2022-07-29T11:58:22;101358.03;;;36.13;31.87
29461;BME280;16428;47.836;35.106;2022-07-29T12:01:13;101359.66;;;36.32;31.00
29461;BME280;16428;47.836;35.106;2022-07-29T12:03:44;101360.25;;;36.46;31.29
29461;BME280;16428;47.836;35.106;2022-07-29T12:06:13;101350.59;;;36.64;30.92
29461;BME280;16428;47.836;35.106;2022-07-29T12:08:45;101350.03;;;36.50;30.39
29461;BME280;16428;47.836;35.106;2022-07-29T12:11:19;101351.22;;;36.78;30.43
29461;BME280;16428;47.836;35.106;2022-07-29T12:13:52;101350.53;;;36.81;30.08
29461;BME280;16428;47.836;35.106;2022-07-29T12:16:35;101351.56;;;36.97;29.65
29461;BME280;16428;47.836;35.106;2022-07-29T12:19:04;101344.28;;;37.05;29.73
29461;BME280;16428;47.836;35.106;2022-07-29T12:21:50;101345.47;;;37.25;29.03
29461;BME280;16428;47.836;35.106;2022-07-29T12:24:24;101343.06;;;37.56;28.57
29461;BME280;16428;47.836;35.106;2022-07-29T12:26:55;101335.78;;;37.76;28.53
29461;BME280;16428;47.836;35.106;2022-07-29T12:29:24;101340.00;;;37.82;27.99
29461;BME280;16428;47.836;35.106;2022-07-29T12:32:03;101340.03;;;37.94;27.09
29461;BME280;16428;47.836;35.106;2022-07-29T12:34:45;101340.34;;;38.14;27.62
29461;BME280;16428;47.836;35.106;2022-07-29T12:37:13;101338.41;;;38.06;26.89
29461;BME280;16428;47.836;35.106;2022-07-29T12:39:42;101339.44;;;38.34;26.98
29461;BME280;16428;47.836;35.106;2022-07-29T12:42:14;101338.22;;;37.78;26.48
29461;BME280;16428;47.836;35.106;2022-07-29T12:47:14;101338.03;;;37.95;26.85
29461;BME280;16428;47.836;35.106;2022-07-29T12:49:44;101341.88;;;37.57;26.51
29461;BME280;16428;47.836;35.106;2022-07-29T12:52:32;101329.16;;;38.05;27.14
29461;BME280;16428;47.836;35.106;2022-07-29T12:55:04;101336.03;;;38.16;26.75
29461;BME280;16428;47.836;35.106;2022-07-29T12:57:44;101334.16;;;38.45;26.38
29461;BME280;16428;47.836;35.106;2022-07-29T13:00:14;101337.78;;;38.33;26.08
29461;BME280;16428;47.836;35.106;2022-07-29T13:02:55;101332.19;;;37.88;26.91
29461;BME280;16428;47.836;35.106;2022-07-29T13:05:23;101334.59;;;38.22;25.59
29461;BME280;16428;47.836;35.106;2022-07-29T13:07:51;101333.34;;;38.81;25.00
29461;BME280;16428;47.836;35.106;2022-07-29T13:10:35;101340.72;;;38.73;25.64
29461;BME280;16428;47.836;35.106;2022-07-29T13:13:11;101336.72;;;38.86;25.44
29461;BME280;16428;47.836;35.106;2022-07-29T13:15:44;101344.22;;;38.82;25.17
29461;BME280;16428;47.836;35.106;2022-07-29T13:18:33;101340.84;;;38.77;24.95
29461;BME280;16428;47.836;35.106;2022-07-29T13:21:15;101330.63;;;39.09;24.72
29461;BME280;16428;47.836;35.106;2022-07-29T13:23:45;101334.25;;;39.49;24.81
29461;BME280;16428;47.836;35.106;2022-07-29T13:26:12;101331.50;;;39.65;23.78
29461;BME280;16428;47.836;35.106;2022-07-29T13:28:40;101326.75;;;39.53;22.78
29461;BME280;16428;47.836;35.106;2022-07-29T13:31:10;101325.38;;;39.47;23.42
29461;BME280;16428;47.836;35.106;2022-07-29T13:33:38;101326.88;;;39.72;23.31
29461;BME280;16428;47.836;35.106;2022-07-29T13:36:07;101321.16;;;39.69;22.85
29461;BME280;16428;47.836;35.106;2022-07-29T13:38:35;101318.47;;;39.88;23.48
29461;BME280;16428;47.836;35.106;2022-07-29T13:41:02;101320.88;;;40.02;23.84
29461;BME280;16428;47.836;35.106;2022-07-29T13:43:33;101324.22;;;40.23;23.11
29461;BME280;16428;47.836;35.106;2022-07-29T13:46:00;101312.25;;;40.26;23.68
29461;BME280;16428;47.836;35.106;2022-07-29T13:48:28;101323.28;;;39.88;22.90
29461;BME280;16428;47.836;35.106;2022-07-29T13:50:56;101316.03;;;40.18;23.21
29461;BME280;16428;47.836;35.106;2022-07-29T13:53:24;101321.84;;;39.94;23.28